KGAG/GAG METAR and TAF weather

Enter ICAO airport designator
Station Type Date Time Source
KGAG METAR 2019/02/17 15:53 UTC NOAA

KGAG 171553Z AUTO 35009KT 7SM CLR 01/M04 A3000 RMK AO2 SLP174 T00111044


Station Type Date Time Source
KGAG Decoded METAR 2019/02/17 15:53 UTC NOAA

GAGE AIRPORT, OK, United States (KGAG) 36-18N 99-46W 668M
Feb 17, 2019 - 10:53 AM EST / 2019.02.17 1553 UTC
Wind: from the N (350 degrees) at 10 MPH (9 KT):0
Visibility: 7 mile(s):0
Sky conditions: clear
Temperature: 34.0 F (1.1 C)
Windchill: 26 F (-3 C):1
Dew Point: 24.1 F (-4.4 C)
Relative Humidity: 66%
Pressure (altimeter): 30 in. Hg (1015 hPa)
ob: KGAG 171553Z AUTO 35009KT 7SM CLR 01/M04 A3000 RMK AO2 SLP174 T00111044
cycle: 16

Station Type Date Time Source
KGAG TAF 2018/03/21 06:22 UTC NOAA

TAF KGAG 210520Z 2106/2206 VRB04KT P6SM SCT250
FM211300 16008KT P6SM SCT250
FM211800 18012G22KT P6SM BKN250


Example: see airport list